createdAt,value
2019-01-30T00:02:51.557Z,-0.21
2019-01-30T00:07:55.931Z,-0.38
2019-01-30T00:13:00.250Z,-0.29
2019-01-30T00:18:05.078Z,-0.28
2019-01-30T00:23:09.400Z,-0.64
2019-01-30T00:28:13.969Z,-0.58
2019-01-30T00:33:18.289Z,-0.57
2019-01-30T00:38:22.699Z,-0.48
2019-01-30T00:43:27.071Z,-0.37
2019-01-30T00:48:31.525Z,-0.60
2019-01-30T00:53:35.859Z,-0.31
2019-01-30T00:58:40.211Z,-0.04
2019-01-30T01:03:44.716Z,-0.23
2019-01-30T01:08:49.126Z,-0.25
2019-01-30T01:13:53.523Z,-0.35
2019-01-30T01:18:57.925Z,0.15
2019-01-30T01:24:02.301Z,0.28
2019-01-30T01:29:06.658Z,0.25
2019-01-30T01:34:11.095Z,0.29
2019-01-30T01:39:15.466Z,0.46
2019-01-30T01:44:19.810Z,0.24
2019-01-30T01:49:24.160Z,0.34
2019-01-30T01:54:28.510Z,-0.28
2019-01-30T01:59:32.860Z,-0.22
2019-01-30T02:04:37.237Z,-0.33
2019-01-30T02:09:41.684Z,0.04
2019-01-30T02:14:46.060Z,-0.29
2019-01-30T02:19:50.426Z,-0.06
2019-01-30T02:24:54.875Z,0.07
2019-01-30T02:29:59.227Z,-0.19
2019-01-30T02:35:03.755Z,-0.05
2019-01-30T02:40:11.353Z,-0.25
2019-01-30T02:45:21.415Z,-0.23
2019-01-30T02:50:25.855Z,-0.23
2019-01-30T02:55:30.314Z,-0.12
2019-01-30T03:00:36.439Z,-0.21
2019-01-30T03:05:40.771Z,-0.42
2019-01-30T03:10:45.171Z,-0.48
2019-01-30T03:15:49.549Z,-0.51
2019-01-30T03:20:53.924Z,-0.54
2019-01-30T03:25:58.312Z,-0.60
2019-01-30T03:31:17.342Z,-0.34
2019-01-30T03:36:08.750Z,-0.55
2019-01-30T03:41:13.125Z,-0.83
2019-01-30T03:46:17.708Z,-0.80
2019-01-30T03:51:22.075Z,-0.35
2019-01-30T03:56:26.556Z,-0.82
2019-01-30T04:01:30.939Z,-0.55
2019-01-30T04:06:35.318Z,-0.53
2019-01-30T04:11:39.860Z,-0.46
2019-01-30T04:16:44.214Z,-0.37
2019-01-30T04:21:48.585Z,-0.27
2019-01-30T04:26:52.960Z,-0.06
2019-01-30T04:31:57.750Z,-0.11
2019-01-30T04:37:02.268Z,-0.03
2019-01-30T04:42:06.707Z,-0.21
2019-01-30T04:47:11.183Z,-0.04
2019-01-30T04:52:15.505Z,-0.52
2019-01-30T04:57:19.897Z,0.08
2019-01-30T05:02:24.295Z,0.21
2019-01-30T05:07:28.644Z,-0.02
2019-01-30T05:12:33.120Z,0.02
2019-01-30T05:17:37.502Z,-0.13
2019-01-30T05:22:41.849Z,-0.05
2019-01-30T05:27:46.251Z,0.00
2019-01-30T05:32:50.621Z,0.42
2019-01-30T05:37:55.050Z,-0.20
2019-01-30T05:42:59.420Z,-0.20
2019-01-30T05:48:03.819Z,-0.70
2019-01-30T05:53:08.214Z,-0.50
2019-01-30T05:58:12.593Z,-0.33
2019-01-30T06:03:17.461Z,-0.26
2019-01-30T06:08:21.808Z,-0.21
2019-01-30T06:13:26.170Z,-0.40
2019-01-30T06:18:30.511Z,-0.96
2019-01-30T06:23:34.863Z,-0.30
2019-01-30T06:28:39.232Z,-0.65
2019-01-30T06:33:43.625Z,-0.58
2019-01-30T06:38:48.007Z,-0.50
2019-01-30T06:43:52.443Z,-0.17
2019-01-30T06:48:56.784Z,-0.61
2019-01-30T06:54:01.135Z,-0.22
2019-01-30T06:59:06.067Z,-0.40
2019-01-30T07:04:11.439Z,-0.37
2019-01-30T07:09:16.259Z,-0.26
2019-01-30T07:14:20.788Z,-0.23
2019-01-30T07:19:25.177Z,-0.16
2019-01-30T07:24:29.517Z,0.01
2019-01-30T07:29:33.857Z,-0.30
2019-01-30T07:34:38.225Z,-0.48
2019-01-30T07:39:42.603Z,-0.18
2019-01-30T07:44:50.676Z,0.11
2019-01-30T07:49:53.020Z,-0.40
2019-01-30T07:54:58.136Z,-0.03
2019-01-30T08:00:02.514Z,0.05
2019-01-30T08:05:09.239Z,-0.27
2019-01-30T08:10:15.319Z,-0.31
2019-01-30T08:15:22.488Z,0.17
2019-01-30T08:20:26.850Z,-0.05
2019-01-30T08:25:31.593Z,0.30
2019-01-30T08:30:36.417Z,0.03
2019-01-30T08:35:40.970Z,0.20
2019-01-30T08:40:46.393Z,0.28
2019-01-30T08:45:50.767Z,0.39
2019-01-30T08:50:55.130Z,0.48
2019-01-30T08:55:59.519Z,0.50
2019-01-30T09:01:03.940Z,0.55
2019-01-30T09:06:08.310Z,0.67
2019-01-30T09:11:12.638Z,0.83
2019-01-30T09:16:17.019Z,0.86
2019-01-30T09:21:21.383Z,0.87
2019-01-30T09:26:25.767Z,0.92
2019-01-30T09:31:30.105Z,1.01
2019-01-30T09:36:34.534Z,0.96
2019-01-30T09:41:38.867Z,1.18
2019-01-30T09:46:43.240Z,1.29
2019-01-30T09:51:47.645Z,1.24
2019-01-30T09:56:52.502Z,1.43
2019-01-30T10:01:56.828Z,1.51
2019-01-30T10:07:01.155Z,1.47
2019-01-30T10:12:05.584Z,1.72
2019-01-30T10:17:09.926Z,1.68
2019-01-30T10:22:15.431Z,1.81
2019-01-30T10:27:19.778Z,1.86
2019-01-30T10:32:24.147Z,2.00
2019-01-30T10:37:28.495Z,2.00
2019-01-30T10:42:32.848Z,2.09
2019-01-30T10:47:37.208Z,2.22
2019-01-30T10:52:41.595Z,2.10
2019-01-30T10:57:46.909Z,2.20
2019-01-30T11:02:51.345Z,2.28
2019-01-30T11:07:55.679Z,2.36
2019-01-30T11:13:00.017Z,2.29
2019-01-30T11:18:06.906Z,2.47
2019-01-30T11:23:11.242Z,2.37
2019-01-30T11:28:15.699Z,2.41
2019-01-30T11:33:20.329Z,2.57
2019-01-30T11:38:24.712Z,2.70
2019-01-30T11:43:29.041Z,2.56
2019-01-30T11:48:33.585Z,2.88
2019-01-30T11:53:37.921Z,2.93
2019-01-30T11:58:42.286Z,2.95
2019-01-30T12:03:46.697Z,2.75
2019-01-30T12:08:51.041Z,2.94
2019-01-30T12:13:55.474Z,2.75
2019-01-30T12:18:59.806Z,3.09
2019-01-30T12:24:04.337Z,3.12
2019-01-30T12:29:08.758Z,3.02
2019-01-30T12:34:13.129Z,3.16
2019-01-30T12:39:17.447Z,3.08
2019-01-30T12:44:21.976Z,3.15
2019-01-30T12:49:26.382Z,3.10
2019-01-30T12:54:30.740Z,3.14
2019-01-30T12:59:35.133Z,3.22
2019-01-30T13:04:39.492Z,3.15
2019-01-30T13:09:43.846Z,3.26
2019-01-30T13:14:48.211Z,3.34
2019-01-30T13:19:52.584Z,3.43
2019-01-30T13:24:56.924Z,3.22
2019-01-30T13:30:01.330Z,3.36
2019-01-30T13:35:07.436Z,3.33
2019-01-30T13:40:20.449Z,3.34
2019-01-30T13:45:24.895Z,3.28
2019-01-30T13:50:30.169Z,3.37
2019-01-30T13:55:34.630Z,3.38
2019-01-30T14:00:39.338Z,3.36
2019-01-30T14:05:43.701Z,3.22
2019-01-30T14:10:48.083Z,3.15
2019-01-30T14:15:52.437Z,3.05
2019-01-30T14:20:56.928Z,3.05
2019-01-30T14:26:01.304Z,2.99
2019-01-30T14:31:05.729Z,2.84
2019-01-30T14:36:10.106Z,3.07
2019-01-30T14:41:14.420Z,3.07
2019-01-30T14:46:18.819Z,2.97
2019-01-30T14:51:23.892Z,2.88
2019-01-30T14:56:28.226Z,2.84
2019-01-30T15:01:32.688Z,2.73
2019-01-30T15:06:37.205Z,2.80
2019-01-30T15:11:41.576Z,2.75
2019-01-30T15:16:45.977Z,2.54
2019-01-30T15:21:50.315Z,2.61
2019-01-30T15:26:54.680Z,2.57
2019-01-30T15:31:59.072Z,2.42
2019-01-30T15:37:03.421Z,2.59
2019-01-30T15:42:07.789Z,2.57
2019-01-30T15:47:12.142Z,2.30
2019-01-30T15:52:17.301Z,2.22
2019-01-30T15:57:21.717Z,2.52
2019-01-30T16:02:26.038Z,2.37
2019-01-30T16:07:30.415Z,2.28
2019-01-30T16:12:34.927Z,2.32
2019-01-30T16:17:39.268Z,2.35
2019-01-30T16:22:43.662Z,2.28
2019-01-30T16:27:48.081Z,2.25
2019-01-30T16:32:52.504Z,2.11
2019-01-30T16:37:56.968Z,2.23
2019-01-30T16:43:01.367Z,2.07
2019-01-30T16:48:06.780Z,2.09
2019-01-30T16:53:11.739Z,2.17
2019-01-30T16:58:16.275Z,2.10
2019-01-30T17:03:21.665Z,1.87
2019-01-30T17:08:26.295Z,1.92
2019-01-30T17:13:30.756Z,2.14
2019-01-30T17:18:35.160Z,2.11
2019-01-30T17:23:39.493Z,2.05
2019-01-30T17:28:43.870Z,2.10
2019-01-30T17:33:48.423Z,2.03
2019-01-30T17:38:52.822Z,1.99
2019-01-30T17:43:57.163Z,1.91
2019-01-30T17:49:01.546Z,1.92
2019-01-30T17:54:06.284Z,2.01
2019-01-30T17:59:10.676Z,2.00
2019-01-30T18:04:16.220Z,2.01
2019-01-30T18:09:20.769Z,1.82
2019-01-30T18:14:25.180Z,1.95
2019-01-30T18:19:29.655Z,2.08
2019-01-30T18:24:34.090Z,1.89
2019-01-30T18:29:39.214Z,2.00
2019-01-30T18:34:43.569Z,1.93
2019-01-30T18:39:49.664Z,1.74
2019-01-30T18:44:54.044Z,1.81
2019-01-30T18:49:58.471Z,1.89
2019-01-30T18:55:02.846Z,2.00
2019-01-30T19:00:19.420Z,1.89
2019-01-30T19:05:23.821Z,1.73
2019-01-30T19:10:28.262Z,2.08
2019-01-30T19:15:32.697Z,1.98
2019-01-30T19:20:39.438Z,1.95
2019-01-30T19:25:43.771Z,2.06
2019-01-30T19:30:49.186Z,2.08
2019-01-30T19:35:53.573Z,2.05
2019-01-30T19:40:58.074Z,1.90
2019-01-30T19:46:02.468Z,2.00
2019-01-30T19:51:06.879Z,2.04
2019-01-30T19:56:11.217Z,2.20
2019-01-30T20:01:15.636Z,2.14
2019-01-30T20:06:20.047Z,2.07
2019-01-30T20:11:24.394Z,2.17
2019-01-30T20:16:28.763Z,1.94
2019-01-30T20:21:33.150Z,2.21
2019-01-30T20:26:37.640Z,2.06
2019-01-30T20:31:42.055Z,2.20
2019-01-30T20:36:46.576Z,2.08
2019-01-30T20:41:50.954Z,2.18
2019-01-30T20:46:55.336Z,2.07
2019-01-30T20:51:59.704Z,1.95
2019-01-30T20:57:04.115Z,1.83
2019-01-30T21:02:08.534Z,2.02
2019-01-30T21:07:12.906Z,1.87
2019-01-30T21:12:17.368Z,2.17
2019-01-30T21:17:21.712Z,1.69
2019-01-30T21:22:26.083Z,1.61
2019-01-30T21:27:30.466Z,1.69
2019-01-30T21:32:34.940Z,1.90
2019-01-30T21:37:48.629Z,1.73
2019-01-30T21:42:45.967Z,1.71
2019-01-30T21:47:50.287Z,1.72
2019-01-30T21:52:54.697Z,1.73
2019-01-30T21:57:59.080Z,1.80
2019-01-30T22:03:03.568Z,1.87
2019-01-30T22:08:08.891Z,1.77
2019-01-30T22:13:13.372Z,1.63
2019-01-30T22:18:17.935Z,1.47
2019-01-30T22:23:22.463Z,1.37
2019-01-30T22:28:26.813Z,1.55
2019-01-30T22:33:31.519Z,1.72
2019-01-30T22:38:35.878Z,1.44
2019-01-30T22:43:40.637Z,1.46
2019-01-30T22:48:49.636Z,1.43
2019-01-30T22:53:54.215Z,1.55
2019-01-30T22:58:59.254Z,1.69
2019-01-30T23:04:26.597Z,1.60
2019-01-30T23:09:50.767Z,1.67
2019-01-30T23:15:04.410Z,1.88
2019-01-30T23:20:14.548Z,1.65
2019-01-30T23:25:45.927Z,1.66
2019-01-30T23:31:17.461Z,1.28
2019-01-30T23:36:32.223Z,1.78
2019-01-30T23:42:13.765Z,1.57
2019-01-30T23:47:21.317Z,1.58
2019-01-30T23:52:58.705Z,1.71
2019-01-30T23:58:15.428Z,1.51
